createdAt,value
2017-12-15T01:37:26.832Z,52.18
2017-12-15T01:37:27.402Z,51.89
2017-12-15T01:37:28.001Z,51.80
2017-12-15T01:37:28.601Z,51.80
2017-12-15T01:37:29.203Z,51.99
2017-12-15T01:37:29.801Z,51.89
2017-12-15T01:37:30.400Z,52.08
2017-12-15T01:37:31.000Z,52.08
2017-12-15T01:38:25.508Z,51.89
2017-12-15T01:38:26.078Z,51.89
2017-12-15T01:38:26.680Z,51.89
2017-12-15T01:38:27.277Z,51.99
2017-12-15T01:38:27.879Z,51.99
2017-12-15T01:38:28.478Z,51.89
2017-12-15T01:38:29.079Z,51.99
2017-12-15T01:38:29.677Z,51.89
2017-12-15T01:39:23.136Z,51.99
2017-12-15T01:39:23.733Z,51.80
2017-12-15T01:39:24.332Z,51.89
2017-12-15T01:39:24.938Z,51.89
2017-12-15T01:39:25.530Z,51.80
2017-12-15T01:39:26.131Z,51.89
2017-12-15T01:39:26.730Z,51.89
2017-12-15T01:39:27.329Z,51.89
2017-12-15T01:40:20.790Z,51.89
2017-12-15T01:40:21.385Z,51.89
2017-12-15T01:40:21.982Z,51.80
2017-12-15T01:40:22.589Z,51.80
2017-12-15T01:40:23.189Z,51.80
2017-12-15T01:40:23.783Z,51.80
2017-12-15T01:40:24.382Z,51.80
2017-12-15T01:40:24.984Z,51.70
2017-12-15T01:41:19.464Z,51.99
2017-12-15T01:41:20.060Z,51.89
2017-12-15T01:41:20.659Z,51.80
2017-12-15T01:41:21.261Z,51.89
2017-12-15T01:41:21.858Z,51.89
2017-12-15T01:41:22.459Z,51.80
2017-12-15T01:41:23.059Z,51.89
2017-12-15T01:41:23.661Z,51.89
2017-12-15T01:42:17.117Z,51.70
2017-12-15T01:42:17.712Z,51.61
2017-12-15T01:42:18.311Z,51.80
2017-12-15T01:42:18.913Z,51.70
2017-12-15T01:42:19.513Z,51.61
2017-12-15T01:42:20.112Z,51.61
2017-12-15T01:42:20.714Z,51.61
2017-12-15T01:42:21.310Z,51.61
2017-12-15T01:43:16.327Z,51.70
2017-12-15T01:43:16.899Z,51.51
2017-12-15T01:43:17.499Z,51.70
2017-12-15T01:43:18.100Z,51.70
2017-12-15T01:43:18.699Z,51.70
2017-12-15T01:43:19.299Z,51.70
2017-12-15T01:44:40.378Z,51.42
2017-12-15T01:44:40.971Z,51.23
2017-12-15T01:44:41.570Z,51.51
2017-12-15T01:44:42.172Z,51.32
2017-12-15T01:44:42.822Z,51.32
2017-12-15T01:44:43.372Z,51.61
2017-12-15T01:44:43.969Z,51.32
2017-12-15T01:44:44.573Z,51.23
2017-12-15T01:44:45.170Z,51.32
2017-12-15T01:44:45.768Z,51.42
2017-12-15T01:44:46.370Z,51.23
2017-12-15T01:44:46.971Z,51.32
2017-12-15T01:44:47.568Z,51.42
2017-12-15T01:44:48.167Z,51.51
2017-12-15T01:44:48.772Z,51.51
2017-12-15T01:47:01.856Z,51.70
2017-12-15T01:47:02.361Z,51.61
2017-12-15T01:47:02.959Z,50.95
2017-12-15T01:47:03.558Z,51.70
2017-12-15T01:47:04.157Z,51.32
2017-12-15T01:47:04.759Z,51.32
2017-12-15T01:47:05.358Z,51.23
2017-12-15T01:47:05.957Z,50.95
2017-12-15T01:47:06.558Z,51.32
2017-12-15T01:47:07.158Z,50.95
2017-12-15T01:47:07.757Z,51.32
2017-12-15T01:48:02.207Z,51.32
2017-12-15T01:48:02.713Z,51.14
2017-12-15T01:48:03.311Z,51.04
2017-12-15T01:48:03.909Z,51.04
2017-12-15T01:48:04.511Z,51.42
2017-12-15T01:48:05.110Z,51.04
2017-12-15T01:48:05.709Z,51.14
2017-12-15T01:48:06.309Z,51.14
2017-12-15T01:49:00.780Z,51.32
2017-12-15T01:49:01.378Z,51.23
2017-12-15T01:49:01.978Z,51.32
2017-12-15T01:49:02.579Z,51.14
2017-12-15T01:49:03.176Z,51.14
2017-12-15T01:49:03.779Z,51.14
2017-12-15T01:49:04.376Z,51.14
2017-12-15T01:49:04.978Z,51.32
2017-12-15T01:49:58.433Z,51.51
2017-12-15T01:49:59.030Z,51.61
2017-12-15T01:49:59.636Z,51.32
2017-12-15T01:50:00.229Z,51.32
2017-12-15T01:50:00.828Z,51.23
2017-12-15T01:50:01.428Z,51.61
2017-12-15T01:50:02.027Z,51.70
2017-12-15T01:50:02.628Z,51.42
2017-12-15T01:50:56.085Z,51.23
2017-12-15T01:50:56.683Z,51.23
2017-12-15T01:50:57.283Z,51.23
2017-12-15T01:50:57.882Z,51.23
2017-12-15T01:50:58.481Z,51.23
2017-12-15T01:50:59.084Z,51.32
2017-12-15T01:50:59.681Z,51.04
2017-12-15T01:51:00.281Z,51.23
2017-12-15T01:51:54.760Z,50.76
2017-12-15T01:51:55.361Z,50.76
2017-12-15T01:51:55.960Z,50.76
2017-12-15T01:51:56.556Z,50.85
2017-12-15T01:51:57.157Z,50.85
2017-12-15T01:51:57.758Z,50.85
2017-12-15T01:51:58.359Z,50.76
2017-12-15T01:51:58.955Z,50.85
2017-12-15T01:52:53.435Z,50.95
2017-12-15T01:52:54.032Z,50.95
2017-12-15T01:52:54.632Z,50.76
2017-12-15T01:52:55.233Z,50.95
2017-12-15T01:52:55.831Z,50.97
2017-12-15T01:52:56.433Z,50.66
2017-12-15T01:52:57.033Z,50.78
2017-12-15T01:52:57.631Z,50.85
2017-12-15T01:53:52.142Z,50.76
2017-12-15T01:53:52.709Z,50.69
2017-12-15T01:53:53.307Z,50.69
2017-12-15T01:53:53.907Z,50.59
2017-12-15T01:53:54.507Z,50.69
2017-12-15T01:53:55.108Z,50.69
2017-12-15T01:53:55.707Z,50.59
2017-12-15T01:53:56.305Z,50.78
2017-12-15T01:54:50.786Z,50.49
2017-12-15T01:54:51.383Z,50.78
2017-12-15T01:54:51.983Z,50.40
2017-12-15T01:54:52.584Z,50.88
2017-12-15T01:54:53.183Z,50.40
2017-12-15T01:54:53.783Z,50.69
2017-12-15T01:54:54.383Z,50.69
2017-12-15T01:54:54.987Z,50.69
2017-12-15T01:55:49.463Z,50.40
2017-12-15T01:55:50.061Z,50.69
2017-12-15T01:55:50.659Z,50.40
2017-12-15T01:55:51.258Z,50.31
2017-12-15T01:55:51.860Z,50.59
2017-12-15T01:55:52.460Z,50.21
2017-12-15T01:55:53.058Z,50.31
2017-12-15T01:55:53.661Z,50.69
2017-12-15T01:56:48.138Z,50.40
2017-12-15T01:56:48.734Z,50.49
2017-12-15T01:56:49.336Z,50.40
2017-12-15T01:56:49.935Z,50.40
2017-12-15T01:56:50.535Z,50.40
2017-12-15T01:56:51.135Z,50.31
2017-12-15T01:56:51.735Z,50.40
2017-12-15T01:56:52.335Z,50.40
2017-12-15T01:57:46.819Z,50.40
2017-12-15T01:57:47.411Z,50.31
2017-12-15T01:57:48.011Z,50.40
2017-12-15T01:57:48.611Z,50.59
2017-12-15T01:57:49.210Z,50.59
2017-12-15T01:57:49.811Z,50.40
2017-12-15T01:57:50.410Z,50.40
2017-12-15T01:57:51.010Z,50.59
2017-12-15T01:58:45.490Z,50.40
2017-12-15T01:58:46.089Z,50.31
2017-12-15T01:58:46.686Z,50.49
2017-12-15T01:58:47.287Z,50.21
2017-12-15T01:58:47.886Z,50.21
2017-12-15T01:58:48.486Z,50.49
2017-12-15T01:58:49.086Z,50.40
2017-12-15T01:58:49.685Z,50.49
2017-12-15T01:59:44.198Z,50.21
2017-12-15T01:59:44.762Z,50.40
2017-12-15T01:59:45.363Z,50.12
2017-12-15T01:59:45.963Z,50.21
2017-12-15T01:59:46.567Z,50.49
2017-12-15T01:59:47.162Z,50.49
2017-12-15T01:59:47.761Z,50.21
2017-12-15T01:59:48.362Z,50.21
2017-12-15T02:00:41.818Z,50.12
2017-12-15T02:00:42.415Z,50.21
2017-12-15T02:00:43.023Z,50.40
2017-12-15T02:00:43.614Z,50.21
2017-12-15T02:00:44.215Z,50.31
2017-12-15T02:00:44.814Z,50.21
2017-12-15T02:00:45.413Z,50.21
2017-12-15T02:00:46.014Z,50.21
2017-12-15T02:01:40.492Z,50.31
2017-12-15T02:01:41.089Z,50.40
2017-12-15T02:01:41.691Z,50.31
2017-12-15T02:01:42.290Z,50.49
2017-12-15T02:01:42.890Z,50.31
2017-12-15T02:01:43.489Z,50.21
2017-12-15T02:01:44.089Z,50.12
2017-12-15T02:01:44.690Z,50.21
2017-12-15T02:02:38.146Z,50.40
2017-12-15T02:02:38.743Z,50.49
2017-12-15T02:02:39.342Z,50.40
2017-12-15T02:02:39.942Z,50.49
2017-12-15T02:02:40.542Z,50.49
2017-12-15T02:02:41.142Z,50.12
2017-12-15T02:02:41.741Z,50.40
2017-12-15T02:02:42.348Z,50.40
2017-12-15T02:03:36.819Z,50.69
2017-12-15T02:03:37.417Z,50.40
2017-12-15T02:03:38.021Z,50.31
2017-12-15T02:03:38.618Z,50.40
2017-12-15T02:03:39.216Z,50.31
2017-12-15T02:03:39.817Z,50.40
2017-12-15T02:03:40.416Z,50.49
2017-12-15T02:03:41.018Z,50.49
2017-12-15T02:04:34.474Z,50.88
2017-12-15T02:04:35.071Z,50.88
2017-12-15T02:04:35.670Z,50.88
2017-12-15T02:04:36.270Z,50.78
2017-12-15T02:04:36.869Z,50.88
2017-12-15T02:04:37.469Z,50.88
2017-12-15T02:04:38.070Z,50.88
2017-12-15T02:04:38.669Z,50.88
2017-12-15T02:05:32.157Z,51.16
2017-12-15T02:05:32.723Z,51.16
2017-12-15T02:05:33.321Z,51.16
2017-12-15T02:05:33.920Z,51.16
2017-12-15T02:05:34.520Z,51.16
2017-12-15T02:05:35.121Z,51.16
2017-12-15T02:05:35.720Z,51.26
2017-12-15T02:05:36.320Z,51.16
2017-12-15T02:06:29.777Z,51.35
2017-12-15T02:06:30.375Z,51.16
2017-12-15T02:06:30.973Z,51.16
2017-12-15T02:06:31.573Z,51.16
2017-12-15T02:06:32.172Z,51.26
2017-12-15T02:06:32.773Z,51.16
2017-12-15T02:06:33.372Z,51.16
2017-12-15T02:06:33.973Z,51.35
2017-12-15T02:07:28.451Z,51.54
2017-12-15T02:07:29.048Z,51.26
2017-12-15T02:07:29.649Z,51.45
2017-12-15T02:07:30.247Z,51.35
2017-12-15T02:07:30.848Z,51.45
2017-12-15T02:07:31.450Z,51.45
2017-12-15T02:07:32.048Z,51.54
2017-12-15T02:07:32.647Z,51.54
2017-12-15T02:08:27.128Z,52.39
2017-12-15T02:08:27.724Z,51.73
2017-12-15T02:08:28.323Z,52.20
2017-12-15T02:08:28.933Z,52.29
2017-12-15T02:08:29.523Z,52.29
2017-12-15T02:08:30.124Z,52.39
2017-12-15T02:08:30.723Z,52.39
2017-12-15T02:08:31.321Z,52.68
2017-12-15T02:09:24.778Z,52.68
2017-12-15T02:09:25.376Z,52.68
2017-12-15T02:09:25.975Z,52.48
2017-12-15T02:09:26.578Z,52.68
2017-12-15T02:09:27.177Z,52.58
2017-12-15T02:09:27.776Z,52.58
2017-12-15T02:09:28.376Z,52.58
2017-12-15T02:09:28.976Z,52.68
2017-12-15T02:10:22.431Z,52.96
2017-12-15T02:10:23.028Z,52.96
2017-12-15T02:10:23.628Z,53.06
2017-12-15T02:10:24.228Z,52.96
2017-12-15T02:10:24.827Z,52.96
2017-12-15T02:10:25.429Z,52.96
2017-12-15T02:10:26.026Z,52.68
2017-12-15T02:10:26.627Z,52.87
2017-12-15T02:11:20.115Z,53.63
2017-12-15T02:11:20.684Z,53.81
2017-12-15T02:11:21.279Z,53.91
2017-12-15T02:11:21.878Z,53.81
2017-12-15T02:11:22.479Z,53.91
2017-12-15T02:11:23.080Z,53.81
2017-12-15T02:11:23.679Z,53.81
2017-12-15T02:11:24.278Z,53.81
2017-12-15T02:12:18.758Z,53.81
2017-12-15T02:12:19.355Z,53.81
2017-12-15T02:12:19.953Z,54.00
2017-12-15T02:12:20.555Z,53.81
2017-12-15T02:12:21.155Z,53.91
2017-12-15T02:12:21.754Z,53.81
2017-12-15T02:12:22.353Z,53.81
2017-12-15T02:12:22.952Z,54.28
2017-12-15T02:13:16.410Z,54.76
2017-12-15T02:13:17.010Z,54.76
2017-12-15T02:13:17.646Z,54.76
2017-12-15T02:13:18.207Z,54.76
2017-12-15T02:13:18.806Z,54.76
2017-12-15T02:13:19.408Z,54.76
2017-12-15T02:13:20.010Z,54.76
2017-12-15T02:13:20.607Z,54.76
2017-12-15T02:14:15.086Z,55.52
2017-12-15T02:14:15.681Z,55.52
2017-12-15T02:14:16.282Z,55.33
2017-12-15T02:14:16.883Z,55.45
2017-12-15T02:14:17.480Z,55.52
2017-12-15T02:14:18.080Z,55.33
2017-12-15T02:14:18.681Z,55.33
2017-12-15T02:14:19.280Z,55.62
2017-12-15T02:15:13.761Z,55.99
2017-12-15T02:15:14.359Z,55.90
2017-12-15T02:15:14.957Z,56.09
2017-12-15T02:15:15.558Z,56.09
2017-12-15T02:15:16.156Z,56.27
2017-12-15T02:15:16.756Z,55.99
2017-12-15T02:15:17.356Z,55.99
2017-12-15T02:15:17.956Z,56.18
2017-12-15T02:16:11.413Z,56.94
2017-12-15T02:16:12.010Z,57.04
2017-12-15T02:16:12.611Z,57.06
2017-12-15T02:16:13.210Z,56.94
2017-12-15T02:16:13.809Z,57.04
2017-12-15T02:16:14.409Z,56.85
2017-12-15T02:16:15.009Z,56.85
2017-12-15T02:16:15.609Z,56.94
2017-12-15T02:17:09.091Z,58.26
2017-12-15T02:17:09.663Z,58.26
2017-12-15T02:17:10.261Z,58.26
2017-12-15T02:17:10.862Z,58.07
2017-12-15T02:17:11.463Z,58.26
2017-12-15T02:17:12.062Z,58.36
2017-12-15T02:17:12.661Z,58.39
2017-12-15T02:17:13.262Z,58.48
2017-12-15T02:18:07.739Z,58.93
2017-12-15T02:18:08.336Z,59.03
2017-12-15T02:18:08.937Z,58.74
2017-12-15T02:18:09.540Z,58.93
2017-12-15T02:18:10.135Z,59.03
2017-12-15T02:18:10.736Z,59.22
2017-12-15T02:18:11.338Z,59.22
2017-12-15T02:18:11.937Z,59.31
2017-12-15T02:19:06.417Z,60.44
2017-12-15T02:19:07.013Z,60.35
2017-12-15T02:19:07.612Z,60.54
2017-12-15T02:19:08.211Z,60.83
2017-12-15T02:19:08.813Z,60.54
2017-12-15T02:19:09.412Z,60.83
2017-12-15T02:19:10.011Z,60.47
2017-12-15T02:19:10.612Z,60.54
2017-12-15T02:20:04.076Z,61.87
2017-12-15T02:20:04.665Z,61.87
2017-12-15T02:20:05.264Z,61.68
2017-12-15T02:20:05.863Z,62.18
2017-12-15T02:20:06.464Z,62.05
2017-12-15T02:20:07.063Z,62.15
2017-12-15T02:20:07.664Z,61.96
2017-12-15T02:20:08.263Z,62.08
2017-12-15T02:21:02.743Z,63.51
2017-12-15T02:21:03.340Z,63.32
2017-12-15T02:21:03.939Z,63.42
2017-12-15T02:21:04.539Z,63.13
2017-12-15T02:21:05.140Z,63.20
2017-12-15T02:21:05.741Z,63.32
2017-12-15T02:21:06.339Z,63.70
2017-12-15T02:21:06.938Z,63.79
2017-12-15T02:22:01.443Z,64.84
2017-12-15T02:22:02.016Z,64.81
2017-12-15T02:22:02.615Z,65.03
2017-12-15T02:22:03.215Z,65.03
2017-12-15T02:22:03.816Z,64.93
2017-12-15T02:22:04.414Z,65.03
2017-12-15T02:22:05.014Z,65.03
2017-12-15T02:22:05.622Z,65.03
2017-12-15T02:23:00.094Z,66.03
2017-12-15T02:23:00.693Z,65.78
2017-12-15T02:23:01.292Z,65.69
2017-12-15T02:23:01.891Z,65.69
2017-12-15T02:23:02.493Z,65.50
2017-12-15T02:23:03.093Z,66.07
2017-12-15T02:23:03.690Z,65.88
2017-12-15T02:23:04.288Z,66.26
2017-12-15T02:23:57.748Z,67.11
2017-12-15T02:23:58.344Z,67.40
2017-12-15T02:23:58.943Z,67.58
2017-12-15T02:23:59.544Z,67.40
2017-12-15T02:24:00.142Z,67.58
2017-12-15T02:24:00.742Z,67.21
2017-12-15T02:24:01.343Z,67.49
2017-12-15T02:24:01.942Z,67.49
2017-12-15T02:24:55.398Z,68.35
2017-12-15T02:24:55.994Z,68.06
2017-12-15T02:24:56.594Z,68.44
2017-12-15T02:24:57.195Z,68.15
2017-12-15T02:24:57.794Z,68.15
2017-12-15T02:24:58.394Z,68.44
2017-12-15T02:24:58.994Z,68.54
2017-12-15T02:24:59.595Z,68.35
2017-12-15T02:25:54.074Z,69.57
2017-12-15T02:25:54.669Z,69.67
2017-12-15T02:25:55.272Z,69.57
2017-12-15T02:25:55.869Z,69.57
2017-12-15T02:25:56.470Z,69.38
2017-12-15T02:25:57.069Z,69.57
2017-12-15T02:25:57.669Z,69.67
2017-12-15T02:25:58.269Z,69.57
2017-12-15T02:26:52.771Z,70.72
2017-12-15T02:26:53.346Z,70.53
2017-12-15T02:26:53.946Z,70.62
2017-12-15T02:26:54.547Z,70.53
2017-12-15T02:26:55.146Z,70.62
2017-12-15T02:26:55.745Z,70.53
2017-12-15T02:26:56.345Z,70.72
2017-12-15T02:26:56.946Z,70.53
2017-12-15T02:27:51.424Z,71.95
2017-12-15T02:27:52.021Z,72.14
2017-12-15T02:27:52.621Z,72.14
2017-12-15T02:27:53.221Z,72.33
2017-12-15T02:27:53.821Z,72.04
2017-12-15T02:27:54.422Z,72.14
2017-12-15T02:27:55.020Z,72.14
2017-12-15T02:27:55.620Z,72.14
2017-12-15T02:28:50.100Z,72.89
2017-12-15T02:28:50.698Z,72.89
2017-12-15T02:28:51.296Z,72.89
2017-12-15T02:28:51.896Z,72.99
2017-12-15T02:28:52.498Z,72.99
2017-12-15T02:28:53.097Z,72.80
2017-12-15T02:28:53.695Z,72.99
2017-12-15T02:28:54.296Z,72.71
2017-12-15T02:29:47.752Z,74.13
2017-12-15T02:29:48.350Z,74.13
2017-12-15T02:29:48.950Z,74.13
2017-12-15T02:29:49.549Z,73.84
2017-12-15T02:29:50.149Z,73.75
2017-12-15T02:29:50.750Z,74.22
2017-12-15T02:29:51.353Z,73.46
2017-12-15T02:29:51.948Z,73.65
2017-12-15T02:30:45.404Z,75.26
2017-12-15T02:30:46.000Z,75.36
2017-12-15T02:30:46.600Z,75.26
2017-12-15T02:30:47.200Z,74.88
2017-12-15T02:30:47.799Z,74.88
2017-12-15T02:30:48.402Z,74.98
2017-12-15T02:30:49.000Z,74.98
2017-12-15T02:30:49.599Z,74.98
2017-12-15T02:31:44.096Z,76.12
2017-12-15T02:31:44.676Z,76.03
2017-12-15T02:31:45.277Z,76.68
2017-12-15T02:31:45.874Z,76.68
2017-12-15T02:31:46.475Z,76.12
2017-12-15T02:31:47.076Z,76.68
2017-12-15T02:31:47.675Z,76.68
2017-12-15T02:31:48.276Z,76.68
2017-12-15T02:32:42.786Z,77.35
2017-12-15T02:32:43.353Z,77.25
2017-12-15T02:32:43.952Z,77.25
2017-12-15T02:32:44.551Z,77.35
2017-12-15T02:32:45.150Z,77.45
2017-12-15T02:32:45.750Z,77.16
2017-12-15T02:32:46.351Z,77.25
2017-12-15T02:32:46.951Z,77.45
2017-12-15T02:33:41.432Z,78.67
2017-12-15T02:33:42.028Z,78.77
2017-12-15T02:33:42.627Z,78.77
2017-12-15T02:33:43.228Z,78.67
2017-12-15T02:33:43.835Z,78.87
2017-12-15T02:33:44.427Z,78.30
2017-12-15T02:33:45.027Z,78.39
2017-12-15T02:33:45.628Z,78.67
2017-12-15T02:51:38.516Z,85.22
2017-12-15T02:51:38.912Z,84.94
2017-12-15T02:51:38.982Z,85.50
2017-12-15T02:51:39.465Z,85.22
2017-12-15T02:51:40.070Z,85.50
2017-12-15T02:51:40.665Z,85.13
2017-12-15T02:51:41.265Z,85.50
2017-12-15T02:51:41.864Z,85.50
2017-12-15T02:52:35.312Z,84.74
2017-12-15T02:52:35.908Z,85.13
2017-12-15T02:52:36.508Z,84.55
2017-12-15T02:52:37.107Z,84.84
2017-12-15T02:52:37.707Z,84.94
2017-12-15T02:52:38.306Z,84.65
2017-12-15T02:52:38.907Z,84.94
2017-12-15T02:52:39.510Z,84.84
2017-12-15T02:53:32.963Z,84.80
2017-12-15T02:53:33.562Z,84.80
2017-12-15T02:53:34.160Z,84.84
2017-12-15T02:53:34.759Z,84.94
2017-12-15T02:53:35.360Z,84.74
2017-12-15T02:53:35.966Z,85.13
2017-12-15T02:53:36.558Z,84.84
2017-12-15T02:53:37.159Z,85.13
2017-12-15T02:54:31.672Z,84.80
2017-12-15T02:54:32.235Z,84.32
2017-12-15T02:54:32.834Z,84.32
2017-12-15T02:54:33.435Z,84.61
2017-12-15T02:54:34.037Z,84.61
2017-12-15T02:54:34.633Z,84.51
2017-12-15T02:54:35.234Z,84.46
2017-12-15T02:54:35.834Z,84.51
2017-12-15T02:55:29.292Z,84.04
2017-12-15T02:55:29.888Z,84.23
2017-12-15T02:55:30.488Z,83.94
2017-12-15T02:55:31.087Z,84.08
2017-12-15T02:55:31.688Z,83.98
2017-12-15T02:55:32.287Z,83.75
2017-12-15T02:55:32.887Z,83.85
2017-12-15T02:55:33.488Z,84.04
2017-12-15T02:56:27.966Z,83.56
2017-12-15T02:56:28.564Z,83.23
2017-12-15T02:56:29.163Z,83.61
2017-12-15T02:56:29.763Z,83.51
2017-12-15T02:56:30.362Z,83.66
2017-12-15T02:56:30.965Z,83.47
2017-12-15T02:56:31.566Z,83.47
2017-12-15T02:56:32.164Z,83.66
2017-12-15T02:57:25.618Z,82.62
2017-12-15T02:57:26.216Z,83.32
2017-12-15T02:57:26.816Z,83.32
2017-12-15T02:57:27.416Z,83.18
2017-12-15T02:57:28.016Z,83.28
2017-12-15T02:57:28.615Z,83.18
2017-12-15T02:57:29.215Z,83.13
2017-12-15T02:57:29.816Z,82.71
2017-12-15T02:58:23.271Z,82.33
2017-12-15T02:58:23.869Z,82.28
2017-12-15T02:58:24.468Z,82.28
2017-12-15T02:58:25.068Z,82.24
2017-12-15T02:58:25.667Z,82.24
2017-12-15T02:58:26.268Z,82.24
2017-12-15T02:58:26.867Z,82.14
2017-12-15T02:58:27.467Z,81.76
2017-12-15T02:59:20.923Z,81.95
2017-12-15T02:59:21.520Z,82.14
2017-12-15T02:59:22.120Z,81.95
2017-12-15T02:59:22.721Z,81.95
2017-12-15T02:59:23.319Z,81.95
2017-12-15T02:59:23.924Z,81.95
2017-12-15T02:59:24.518Z,81.86
2017-12-15T02:59:25.119Z,81.86
2017-12-15T03:00:18.605Z,82.05
2017-12-15T03:00:19.171Z,82.05
2017-12-15T03:00:19.770Z,82.05
2017-12-15T03:00:20.370Z,81.95
2017-12-15T03:00:20.978Z,81.95
2017-12-15T03:00:21.572Z,81.95
2017-12-15T03:00:22.170Z,82.05
2017-12-15T03:00:22.769Z,81.95
2017-12-15T03:01:16.226Z,81.48
2017-12-15T03:01:16.823Z,81.38
2017-12-15T03:01:17.424Z,81.29
2017-12-15T03:01:18.023Z,81.20
2017-12-15T03:01:18.623Z,81.52
2017-12-15T03:01:19.231Z,81.20
2017-12-15T03:01:19.824Z,81.20
2017-12-15T03:01:20.422Z,81.20
2017-12-15T03:02:13.879Z,81.48
2017-12-15T03:02:14.494Z,81.48
2017-12-15T03:02:15.075Z,81.52
2017-12-15T03:02:15.677Z,81.67
2017-12-15T03:02:16.274Z,81.67
2017-12-15T03:02:16.877Z,81.62
2017-12-15T03:02:17.481Z,81.67
2017-12-15T03:02:18.073Z,81.48
2017-12-15T03:03:11.530Z,81.01
2017-12-15T03:03:12.127Z,81.20
2017-12-15T03:03:12.727Z,81.29
2017-12-15T03:03:13.325Z,80.91
2017-12-15T03:03:13.926Z,81.20
2017-12-15T03:03:14.526Z,80.82
2017-12-15T03:03:15.125Z,81.29
2017-12-15T03:03:15.726Z,81.20
2017-12-15T03:04:10.205Z,81.20
2017-12-15T03:04:10.803Z,81.29
2017-12-15T03:04:11.402Z,81.29
2017-12-15T03:04:12.001Z,81.24
2017-12-15T03:04:12.601Z,81.52
2017-12-15T03:04:13.201Z,81.29
2017-12-15T03:04:13.802Z,81.57
2017-12-15T03:04:14.402Z,81.52
2017-12-15T03:05:08.880Z,81.95
2017-12-15T03:05:09.488Z,81.86
2017-12-15T03:05:10.077Z,81.99
2017-12-15T03:05:10.678Z,81.99
2017-12-15T03:05:11.277Z,81.99
2017-12-15T03:05:11.878Z,81.86
2017-12-15T03:05:12.476Z,81.95
2017-12-15T03:05:13.077Z,81.99
2017-12-15T03:06:07.586Z,81.67
2017-12-15T03:06:08.153Z,82.14
2017-12-15T03:06:08.753Z,81.67
2017-12-15T03:06:09.356Z,81.95
2017-12-15T03:06:09.954Z,82.14
2017-12-15T03:06:10.553Z,81.95
2017-12-15T03:06:11.154Z,81.86
2017-12-15T03:06:11.752Z,82.05
2017-12-15T03:07:05.208Z,82.56
2017-12-15T03:07:05.806Z,82.47
2017-12-15T03:07:06.405Z,82.52
2017-12-15T03:07:07.005Z,82.62
2017-12-15T03:07:07.605Z,82.62
2017-12-15T03:07:08.204Z,82.43
2017-12-15T03:07:08.805Z,82.62
2017-12-15T03:07:09.403Z,82.62
2017-12-15T03:08:03.371Z,83.13
2017-12-15T03:08:03.974Z,83.09
2017-12-15T03:08:04.568Z,83.09
2017-12-15T03:08:05.168Z,83.13
2017-12-15T03:08:05.769Z,83.00
2017-12-15T03:08:06.368Z,83.09
2017-12-15T03:08:06.968Z,83.13
2017-12-15T03:09:01.433Z,83.28
2017-12-15T03:09:02.030Z,83.37
2017-12-15T03:09:02.629Z,83.28
2017-12-15T03:09:03.229Z,83.28
2017-12-15T03:09:03.828Z,83.28
2017-12-15T03:09:04.428Z,83.42
2017-12-15T03:09:05.028Z,83.42
2017-12-15T03:09:05.628Z,83.56
2017-12-15T03:09:59.087Z,83.66
2017-12-15T03:09:59.682Z,83.56
2017-12-15T03:10:00.282Z,83.61
2017-12-15T03:10:00.896Z,83.75
2017-12-15T03:10:01.481Z,83.56
2017-12-15T03:10:02.082Z,83.47
2017-12-15T03:10:02.682Z,83.47
2017-12-15T03:10:03.281Z,83.42
2017-12-15T03:10:56.739Z,83.56
2017-12-15T03:10:57.335Z,83.66
2017-12-15T03:10:57.933Z,83.51
2017-12-15T03:10:58.534Z,83.70
2017-12-15T03:10:59.131Z,83.56
2017-12-15T03:10:59.733Z,83.70
2017-12-15T03:11:00.332Z,83.47
2017-12-15T03:11:00.941Z,83.37
2017-12-15T03:11:55.436Z,83.75
2017-12-15T03:11:56.009Z,83.70
2017-12-15T03:11:56.609Z,83.75
2017-12-15T03:11:57.209Z,83.85
2017-12-15T03:11:57.808Z,83.75
2017-12-15T03:11:58.408Z,84.08
2017-12-15T03:11:59.007Z,83.66
2017-12-15T03:11:59.612Z,83.85
2017-12-15T03:12:54.107Z,83.85
2017-12-15T03:12:54.688Z,83.66
2017-12-15T03:12:55.284Z,84.04
2017-12-15T03:12:55.938Z,83.75
2017-12-15T03:12:56.485Z,84.04
2017-12-15T03:12:57.084Z,84.04
2017-12-15T03:12:57.683Z,83.75
2017-12-15T03:12:58.284Z,84.04
2017-12-15T03:13:51.741Z,83.85
2017-12-15T03:13:52.338Z,83.85
2017-12-15T03:13:52.936Z,83.85
2017-12-15T03:13:53.537Z,83.75
2017-12-15T03:13:54.137Z,83.75
2017-12-15T03:13:54.736Z,83.56
2017-12-15T03:13:55.335Z,83.85
2017-12-15T03:13:55.936Z,83.85
2017-12-15T03:14:49.391Z,83.94
2017-12-15T03:14:49.989Z,83.98
2017-12-15T03:14:50.588Z,83.94
2017-12-15T03:14:51.189Z,84.13
2017-12-15T03:14:51.789Z,84.23
2017-12-15T03:14:52.388Z,84.23
2017-12-15T03:14:52.987Z,84.13
2017-12-15T03:14:53.590Z,84.27
2017-12-15T03:15:47.043Z,83.56
2017-12-15T03:15:47.640Z,83.66
2017-12-15T03:15:48.244Z,83.85
2017-12-15T03:15:48.841Z,83.47
2017-12-15T03:15:49.440Z,83.75
2017-12-15T03:15:50.046Z,83.66
2017-12-15T03:15:50.640Z,83.66
2017-12-15T03:15:51.243Z,83.75
2017-12-15T03:16:44.727Z,84.13
2017-12-15T03:16:45.293Z,84.08
2017-12-15T03:16:45.893Z,84.13
2017-12-15T03:16:46.491Z,84.04
2017-12-15T03:16:47.092Z,84.04
2017-12-15T03:16:47.691Z,84.04
2017-12-15T03:16:48.292Z,84.04
2017-12-15T03:16:48.897Z,84.13
2017-12-15T03:17:42.348Z,83.94
2017-12-15T03:17:42.948Z,84.04
2017-12-15T03:17:43.543Z,84.08
2017-12-15T03:17:44.143Z,84.04
2017-12-15T03:17:44.743Z,84.36
2017-12-15T03:17:45.352Z,84.08
2017-12-15T03:17:45.947Z,84.08
2017-12-15T03:17:46.544Z,84.32
2017-12-15T03:18:39.998Z,84.27
2017-12-15T03:18:40.597Z,84.17
2017-12-15T03:18:41.192Z,84.27
2017-12-15T03:18:41.793Z,84.13
2017-12-15T03:18:42.393Z,84.17
2017-12-15T03:18:42.993Z,84.46
2017-12-15T03:18:43.591Z,84.27
2017-12-15T03:18:44.193Z,84.17
2017-12-15T03:19:37.651Z,84.65
2017-12-15T03:19:38.246Z,84.65
2017-12-15T03:19:38.846Z,84.84
2017-12-15T03:19:39.449Z,84.74
2017-12-15T03:19:40.045Z,84.46
2017-12-15T03:19:40.646Z,84.74
2017-12-15T03:19:41.246Z,84.74
2017-12-15T03:19:41.847Z,84.84
2017-12-15T03:20:35.302Z,85.50
2017-12-15T03:20:35.901Z,85.60
2017-12-15T03:20:36.498Z,85.50
2017-12-15T03:20:37.099Z,85.60
2017-12-15T03:20:37.698Z,85.41
2017-12-15T03:20:38.300Z,84.94
2017-12-15T03:20:38.904Z,84.94
2017-12-15T03:20:39.497Z,85.41
2017-12-15T03:21:32.954Z,85.78
2017-12-15T03:21:33.551Z,85.78
2017-12-15T03:21:34.151Z,86.45
2017-12-15T03:21:34.751Z,85.97
2017-12-15T03:21:35.351Z,86.35
2017-12-15T03:21:35.951Z,86.26
2017-12-15T03:21:36.557Z,86.45
2017-12-15T03:21:37.150Z,86.26
2017-12-15T03:22:30.638Z,86.55
2017-12-15T03:22:31.203Z,86.35
2017-12-15T03:22:31.801Z,86.45
2017-12-15T03:22:32.402Z,86.45
2017-12-15T03:22:33.002Z,86.55
2017-12-15T03:22:33.601Z,86.35
2017-12-15T03:22:34.201Z,86.16
2017-12-15T03:22:34.802Z,86.35
2017-12-15T03:23:28.256Z,86.16
2017-12-15T03:23:28.854Z,86.16
2017-12-15T03:23:29.454Z,86.07
2017-12-15T03:23:30.053Z,86.35
2017-12-15T03:23:30.653Z,86.16
2017-12-15T03:23:31.252Z,86.45
2017-12-15T03:23:31.860Z,86.16
2017-12-15T03:23:32.453Z,86.07
2017-12-15T03:24:25.909Z,86.55
2017-12-15T03:24:26.507Z,86.74
2017-12-15T03:24:27.108Z,86.74
2017-12-15T03:24:27.706Z,86.45
2017-12-15T03:24:28.305Z,86.74
2017-12-15T03:24:28.906Z,86.64
2017-12-15T03:24:29.509Z,86.45
2017-12-15T03:24:30.105Z,86.64
2017-12-15T03:25:23.560Z,87.02
2017-12-15T03:25:24.159Z,87.12
2017-12-15T03:25:24.756Z,87.12
2017-12-15T03:25:25.356Z,86.83
2017-12-15T03:25:25.957Z,87.12
2017-12-15T03:25:26.558Z,86.93
2017-12-15T03:25:27.168Z,87.12
2017-12-15T03:25:27.758Z,87.12
2017-12-15T03:26:22.234Z,87.40
2017-12-15T03:26:22.833Z,87.40
2017-12-15T03:26:23.431Z,87.40
2017-12-15T03:26:24.031Z,87.49
2017-12-15T03:26:24.631Z,87.30
2017-12-15T03:26:25.230Z,87.40
2017-12-15T03:26:25.832Z,87.40
2017-12-15T03:26:26.431Z,87.40
2017-12-15T03:27:19.889Z,88.54
2017-12-15T03:27:20.486Z,88.16
2017-12-15T03:27:21.085Z,88.16
2017-12-15T03:27:21.684Z,88.25
2017-12-15T03:27:22.284Z,88.54
2017-12-15T03:27:22.886Z,88.35
2017-12-15T03:27:23.489Z,88.54
2017-12-15T03:27:24.083Z,88.16
2017-12-15T03:28:17.571Z,88.44
2017-12-15T03:28:18.143Z,88.63
2017-12-15T03:28:18.736Z,88.73
2017-12-15T03:28:19.336Z,88.54
2017-12-15T03:28:19.937Z,88.63
2017-12-15T03:28:20.543Z,88.63